sensor_id;sensor_type;location;lat;lon;timestamp;pressure;altitude;pressure_sealevel;temperature;humidity
5146;BME280;2591;48.144;15.152;2022-12-07T00:01:09;76632.81;;;-144.65;100.00
5146;BME280;2591;48.144;15.152;2022-12-07T00:03:39;76632.81;;;-144.65;100.00
5146;BME280;2591;48.144;15.152;2022-12-07T00:06:08;76632.81;;;-144.65;100.00
5146;BME280;2591;48.144;15.152;2022-12-07T00:08:37;76628.72;;;-144.65;100.00
5146;BME280;2591;48.144;15.152;2022-12-07T00:11:07;76628.72;;;-144.65;100.00
5146;BME280;2591;48.144;15.152;2022-12-07T00:13:36;76628.72;;;-144.65;100.00
5146;BME280;2591;48.144;15.152;2022-12-07T00:16:06;76632.81;;;-144.65;100.00
5146;BME280;2591;48.144;15.152;2022-12-07T00:18:36;76632.81;;;-144.65;100.00
5146;BME280;2591;48.144;15.152;2022-12-07T00:21:06;76630.78;;;-144.65;100.00
5146;BME280;2591;48.144;15.152;2022-12-07T00:23:34;76630.78;;;-144.65;100.00
5146;BME280;2591;48.144;15.152;2022-12-07T00:26:06;76628.72;;;-144.65;100.00
5146;BME280;2591;48.144;15.152;2022-12-07T00:28:34;76624.66;;;-144.65;100.00
5146;BME280;2591;48.144;15.152;2022-12-07T00:31:03;76622.63;;;-144.65;100.00
5146;BME280;2591;48.144;15.152;2022-12-07T00:33:31;76620.56;;;-144.65;100.00
5146;BME280;2591;48.144;15.152;2022-12-07T00:36:01;76612.41;;;-144.65;100.00
5146;BME280;2591;48.144;15.152;2022-12-07T00:38:31;76618.53;;;-144.65;100.00
5146;BME280;2591;48.144;15.152;2022-12-07T00:41:02;76610.38;;;-144.65;100.00
5146;BME280;2591;48.144;15.152;2022-12-07T00:43:30;76610.38;;;-144.65;100.00
5146;BME280;2591;48.144;15.152;2022-12-07T00:45:58;76604.28;;;-144.65;100.00
5146;BME280;2591;48.144;15.152;2022-12-07T00:48:26;76612.41;;;-144.65;100.00
5146;BME280;2591;48.144;15.152;2022-12-07T00:50:54;76600.19;;;-144.65;100.00
5146;BME280;2591;48.144;15.152;2022-12-07T00:53:23;76608.34;;;-144.65;100.00
5146;BME280;2591;48.144;15.152;2022-12-07T00:55:51;76608.34;;;-144.65;100.00
5146;BME280;2591;48.144;15.152;2022-12-07T00:58:20;76608.34;;;-144.65;100.00
5146;BME280;2591;48.144;15.152;2022-12-07T01:00:48;76604.28;;;-144.65;100.00
5146;BME280;2591;48.144;15.152;2022-12-07T01:03:16;76610.38;;;-144.65;100.00
5146;BME280;2591;48.144;15.152;2022-12-07T01:05:51;76608.34;;;-144.65;100.00
5146;BME280;2591;48.144;15.152;2022-12-07T01:08:20;76608.34;;;-144.65;100.00
5146;BME280;2591;48.144;15.152;2022-12-07T01:10:57;76604.28;;;-144.65;100.00
5146;BME280;2591;48.144;15.152;2022-12-07T01:13:26;76606.31;;;-144.65;100.00
5146;BME280;2591;48.144;15.152;2022-12-07T01:15:57;76604.28;;;-144.65;100.00
5146;BME280;2591;48.144;15.152;2022-12-07T01:18:26;76608.34;;;-144.65;100.00
5146;BME280;2591;48.144;15.152;2022-12-07T01:20:59;76610.38;;;-144.65;100.00
5146;BME280;2591;48.144;15.152;2022-12-07T01:23:27;76608.34;;;-144.65;100.00
5146;BME280;2591;48.144;15.152;2022-12-07T01:25:58;76608.34;;;-144.65;100.00
5146;BME280;2591;48.144;15.152;2022-12-07T01:28:26;76612.41;;;-144.65;100.00
5146;BME280;2591;48.144;15.152;2022-12-07T01:30:58;76614.47;;;-144.65;100.00
5146;BME280;2591;48.144;15.152;2022-12-07T01:33:27;76608.34;;;-144.65;100.00
5146;BME280;2591;48.144;15.152;2022-12-07T01:35:59;76608.34;;;-144.65;100.00
5146;BME280;2591;48.144;15.152;2022-12-07T01:38:28;76604.28;;;-144.65;100.00
5146;BME280;2591;48.144;15.152;2022-12-07T01:40:58;76600.19;;;-144.65;100.00
5146;BME280;2591;48.144;15.152;2022-12-07T01:43:32;76604.28;;;-144.65;100.00
5146;BME280;2591;48.144;15.152;2022-12-07T01:46:00;76602.22;;;-144.65;100.00
5146;BME280;2591;48.144;15.152;2022-12-07T01:48:32;76600.19;;;-144.65;100.00
5146;BME280;2591;48.144;15.152;2022-12-07T01:51:05;76592.03;;;-144.65;100.00
5146;BME280;2591;48.144;15.152;2022-12-07T01:53:36;76596.09;;;-144.65;100.00
5146;BME280;2591;48.144;15.152;2022-12-07T01:56:08;76590.00;;;-144.65;100.00
5146;BME280;2591;48.144;15.152;2022-12-07T01:58:38;76587.94;;;-144.65;100.00
5146;BME280;2591;48.144;15.152;2022-12-07T02:01:06;76592.03;;;-144.65;100.00
5146;BME280;2591;48.144;15.152;2022-12-07T02:03:36;76587.94;;;-144.65;100.00
5146;BME280;2591;48.144;15.152;2022-12-07T02:06:07;76583.88;;;-144.65;100.00
5146;BME280;2591;48.144;15.152;2022-12-07T02:08:35;76583.88;;;-144.65;100.00
5146;BME280;2591;48.144;15.152;2022-12-07T02:11:06;76573.69;;;-144.65;100.00
5146;BME280;2591;48.144;15.152;2022-12-07T02:13:36;76571.63;;;-144.65;100.00
5146;BME280;2591;48.144;15.152;2022-12-07T02:16:12;76571.63;;;-144.65;100.00
5146;BME280;2591;48.144;15.152;2022-12-07T02:18:58;76563.47;;;-144.65;100.00
5146;BME280;2591;48.144;15.152;2022-12-07T02:21:36;76571.63;;;-144.65;100.00
5146;BME280;2591;48.144;15.152;2022-12-07T02:24:42;76571.63;;;-144.65;100.00
5146;BME280;2591;48.144;15.152;2022-12-07T02:27:39;76571.63;;;-144.65;100.00
5146;BME280;2591;48.144;15.152;2022-12-07T02:30:13;76573.69;;;-144.65;100.00
5146;BME280;2591;48.144;15.152;2022-12-07T02:32:45;76565.53;;;-144.65;100.00
5146;BME280;2591;48.144;15.152;2022-12-07T02:35:19;76569.59;;;-144.65;100.00
5146;BME280;2591;48.144;15.152;2022-12-07T02:37:55;76563.47;;;-144.65;100.00
5146;BME280;2591;48.144;15.152;2022-12-07T02:40:29;76559.41;;;-144.65;100.00
5146;BME280;2591;48.144;15.152;2022-12-07T02:43:02;76563.47;;;-144.65;100.00
5146;BME280;2591;48.144;15.152;2022-12-07T02:45:34;76563.47;;;-144.65;100.00
5146;BME280;2591;48.144;15.152;2022-12-07T02:48:05;76559.41;;;-144.65;100.00
5146;BME280;2591;48.144;15.152;2022-12-07T02:50:34;76561.44;;;-144.65;100.00
5146;BME280;2591;48.144;15.152;2022-12-07T02:53:02;76563.47;;;-144.65;100.00
5146;BME280;2591;48.144;15.152;2022-12-07T02:55:34;76563.47;;;-144.65;100.00
5146;BME280;2591;48.144;15.152;2022-12-07T02:58:14;76563.47;;;-144.65;100.00
5146;BME280;2591;48.144;15.152;2022-12-07T03:00:57;76559.41;;;-144.65;100.00
5146;BME280;2591;48.144;15.152;2022-12-07T03:03:28;76559.41;;;-144.65;100.00
5146;BME280;2591;48.144;15.152;2022-12-07T03:06:09;76559.41;;;-144.65;100.00
5146;BME280;2591;48.144;15.152;2022-12-07T03:08:47;76547.16;;;-144.65;100.00
5146;BME280;2591;48.144;15.152;2022-12-07T03:11:23;76555.31;;;-144.65;100.00
5146;BME280;2591;48.144;15.152;2022-12-07T03:13:59;76559.41;;;-144.65;100.00
5146;BME280;2591;48.144;15.152;2022-12-07T03:16:33;76553.28;;;-144.65;100.00
5146;BME280;2591;48.144;15.152;2022-12-07T03:19:07;76557.38;;;-144.65;100.00
5146;BME280;2591;48.144;15.152;2022-12-07T03:21:39;76559.41;;;-144.65;100.00
5146;BME280;2591;48.144;15.152;2022-12-07T03:24:12;76559.41;;;-144.65;100.00
5146;BME280;2591;48.144;15.152;2022-12-07T03:26:46;76559.41;;;-144.65;100.00
5146;BME280;2591;48.144;15.152;2022-12-07T03:29:19;76536.97;;;-144.65;100.00
5146;BME280;2591;48.144;15.152;2022-12-07T03:31:53;76549.22;;;-144.65;100.00
5146;BME280;2591;48.144;15.152;2022-12-07T03:34:27;76551.25;;;-144.65;100.00
5146;BME280;2591;48.144;15.152;2022-12-07T03:37:00;76559.41;;;-144.65;100.00
5146;BME280;2591;48.144;15.152;2022-12-07T03:39:33;76555.31;;;-144.65;100.00
5146;BME280;2591;48.144;15.152;2022-12-07T03:42:05;76555.31;;;-144.65;100.00
5146;BME280;2591;48.144;15.152;2022-12-07T03:44:35;76551.25;;;-144.65;100.00
5146;BME280;2591;48.144;15.152;2022-12-07T03:47:07;76559.41;;;-144.65;100.00
5146;BME280;2591;48.144;15.152;2022-12-07T03:49:43;76555.31;;;-144.65;100.00
5146;BME280;2591;48.144;15.152;2022-12-07T03:52:18;76551.25;;;-144.65;100.00
5146;BME280;2591;48.144;15.152;2022-12-07T03:54:55;76559.41;;;-144.65;100.00
5146;BME280;2591;48.144;15.152;2022-12-07T03:57:26;76563.47;;;-144.65;100.00
5146;BME280;2591;48.144;15.152;2022-12-07T03:59:56;76559.41;;;-144.65;100.00
5146;BME280;2591;48.144;15.152;2022-12-07T04:02:27;76561.44;;;-144.65;100.00
5146;BME280;2591;48.144;15.152;2022-12-07T04:04:56;76563.47;;;-144.65;100.00
5146;BME280;2591;48.144;15.152;2022-12-07T04:07:24;76561.44;;;-144.65;100.00
5146;BME280;2591;48.144;15.152;2022-12-07T04:09:52;76567.56;;;-144.65;100.00
5146;BME280;2591;48.144;15.152;2022-12-07T04:12:21;76567.56;;;-144.65;100.00
5146;BME280;2591;48.144;15.152;2022-12-07T04:14:49;76567.56;;;-144.65;100.00
5146;BME280;2591;48.144;15.152;2022-12-07T04:17:17;76559.41;;;-144.65;100.00
5146;BME280;2591;48.144;15.152;2022-12-07T04:19:47;76565.53;;;-144.65;100.00
5146;BME280;2591;48.144;15.152;2022-12-07T04:22:15;76567.56;;;-144.65;100.00
5146;BME280;2591;48.144;15.152;2022-12-07T04:24:42;76567.56;;;-144.65;100.00
5146;BME280;2591;48.144;15.152;2022-12-07T04:27:10;76559.41;;;-144.65;100.00
5146;BME280;2591;48.144;15.152;2022-12-07T04:29:38;76563.47;;;-144.65;100.00
5146;BME280;2591;48.144;15.152;2022-12-07T04:32:06;76563.47;;;-144.65;100.00
5146;BME280;2591;48.144;15.152;2022-12-07T04:34:34;76561.44;;;-144.65;100.00
5146;BME280;2591;48.144;15.152;2022-12-07T04:37:03;76555.31;;;-144.65;100.00
5146;BME280;2591;48.144;15.152;2022-12-07T04:39:32;76563.47;;;-144.65;100.00
5146;BME280;2591;48.144;15.152;2022-12-07T04:42:01;76559.41;;;-144.65;100.00
5146;BME280;2591;48.144;15.152;2022-12-07T04:44:29;76561.44;;;-144.65;100.00
5146;BME280;2591;48.144;15.152;2022-12-07T04:46:57;76563.47;;;-144.65;100.00
5146;BME280;2591;48.144;15.152;2022-12-07T04:49:25;76563.47;;;-144.65;100.00
5146;BME280;2591;48.144;15.152;2022-12-07T04:51:53;76567.56;;;-144.65;100.00
5146;BME280;2591;48.144;15.152;2022-12-07T04:54:22;76569.59;;;-144.65;100.00
5146;BME280;2591;48.144;15.152;2022-12-07T04:56:50;76567.56;;;-144.65;100.00
5146;BME280;2591;48.144;15.152;2022-12-07T04:59:18;76567.56;;;-144.65;100.00
5146;BME280;2591;48.144;15.152;2022-12-07T05:01:46;76571.63;;;-144.65;100.00
5146;BME280;2591;48.144;15.152;2022-12-07T05:04:14;76571.63;;;-144.65;100.00
5146;BME280;2591;48.144;15.152;2022-12-07T05:06:44;76567.56;;;-144.65;100.00
5146;BME280;2591;48.144;15.152;2022-12-07T05:09:12;76569.59;;;-144.65;100.00
5146;BME280;2591;48.144;15.152;2022-12-07T05:11:41;76571.63;;;-144.65;100.00
5146;BME280;2591;48.144;15.152;2022-12-07T05:14:12;76571.63;;;-144.65;100.00
5146;BME280;2591;48.144;15.152;2022-12-07T05:16:42;76581.84;;;-144.65;100.00
5146;BME280;2591;48.144;15.152;2022-12-07T05:19:11;76585.91;;;-144.65;100.00
5146;BME280;2591;48.144;15.152;2022-12-07T05:21:39;76579.78;;;-144.65;100.00
5146;BME280;2591;48.144;15.152;2022-12-07T05:24:10;76579.78;;;-144.65;100.00
5146;BME280;2591;48.144;15.152;2022-12-07T05:26:40;76579.78;;;-144.65;100.00
5146;BME280;2591;48.144;15.152;2022-12-07T05:29:11;76579.78;;;-144.65;100.00
5146;BME280;2591;48.144;15.152;2022-12-07T05:31:39;76579.78;;;-144.65;100.00
5146;BME280;2591;48.144;15.152;2022-12-07T05:34:07;76575.72;;;-144.65;100.00
5146;BME280;2591;48.144;15.152;2022-12-07T05:36:35;76579.78;;;-144.65;100.00
5146;BME280;2591;48.144;15.152;2022-12-07T05:39:03;76579.78;;;-144.65;100.00
5146;BME280;2591;48.144;15.152;2022-12-07T05:41:31;76579.78;;;-144.65;100.00
5146;BME280;2591;48.144;15.152;2022-12-07T05:44:18;76579.78;;;-144.65;100.00
5146;BME280;2591;48.144;15.152;2022-12-07T05:46:46;76575.72;;;-144.65;100.00
5146;BME280;2591;48.144;15.152;2022-12-07T05:49:13;76579.78;;;-144.65;100.00
5146;BME280;2591;48.144;15.152;2022-12-07T05:51:41;76583.88;;;-144.65;100.00
5146;BME280;2591;48.144;15.152;2022-12-07T05:54:09;76592.03;;;-144.65;100.00
5146;BME280;2591;48.144;15.152;2022-12-07T05:56:37;76594.06;;;-144.65;100.00
5146;BME280;2591;48.144;15.152;2022-12-07T05:59:05;76596.09;;;-144.65;100.00
5146;BME280;2591;48.144;15.152;2022-12-07T06:01:53;76596.09;;;-144.65;100.00
5146;BME280;2591;48.144;15.152;2022-12-07T06:04:22;76600.19;;;-144.65;100.00
5146;BME280;2591;48.144;15.152;2022-12-07T06:06:51;76606.31;;;-144.65;100.00
5146;BME280;2591;48.144;15.152;2022-12-07T06:09:20;76606.31;;;-144.65;100.00
5146;BME280;2591;48.144;15.152;2022-12-07T06:11:48;76608.34;;;-144.65;100.00
5146;BME280;2591;48.144;15.152;2022-12-07T06:14:34;76616.50;;;-144.65;100.00
5146;BME280;2591;48.144;15.152;2022-12-07T06:17:03;76614.47;;;-144.65;100.00
5146;BME280;2591;48.144;15.152;2022-12-07T06:19:31;76612.41;;;-144.65;100.00
5146;BME280;2591;48.144;15.152;2022-12-07T06:22:00;76620.56;;;-144.65;100.00
5146;BME280;2591;48.144;15.152;2022-12-07T06:24:27;76624.66;;;-144.65;100.00
5146;BME280;2591;48.144;15.152;2022-12-07T06:26:55;76632.81;;;-144.65;100.00
5146;BME280;2591;48.144;15.152;2022-12-07T06:29:23;76636.91;;;-144.65;100.00
5146;BME280;2591;48.144;15.152;2022-12-07T06:31:51;76638.94;;;-144.65;100.00
5146;BME280;2591;48.144;15.152;2022-12-07T06:34:22;76634.84;;;-144.65;100.00
5146;BME280;2591;48.144;15.152;2022-12-07T06:36:51;76636.91;;;-144.65;100.00
5146;BME280;2591;48.144;15.152;2022-12-07T06:39:22;76645.03;;;-144.65;100.00
5146;BME280;2591;48.144;15.152;2022-12-07T06:41:51;76640.97;;;-144.65;100.00
5146;BME280;2591;48.144;15.152;2022-12-07T06:44:21;76649.13;;;-144.65;100.00
5146;BME280;2591;48.144;15.152;2022-12-07T06:46:49;76649.13;;;-144.65;100.00
5146;BME280;2591;48.144;15.152;2022-12-07T06:49:20;76651.16;;;-144.65;100.00
5146;BME280;2591;48.144;15.152;2022-12-07T06:51:48;76655.25;;;-144.65;100.00
5146;BME280;2591;48.144;15.152;2022-12-07T06:54:17;76655.25;;;-144.65;100.00
5146;BME280;2591;48.144;15.152;2022-12-07T06:56:45;76655.25;;;-144.65;100.00
5146;BME280;2591;48.144;15.152;2022-12-07T06:59:13;76661.38;;;-144.65;100.00
5146;BME280;2591;48.144;15.152;2022-12-07T07:01:40;76661.38;;;-144.65;100.00
5146;BME280;2591;48.144;15.152;2022-12-07T07:04:08;76649.13;;;-144.65;100.00
5146;BME280;2591;48.144;15.152;2022-12-07T07:06:38;76659.31;;;-144.65;100.00
5146;BME280;2591;48.144;15.152;2022-12-07T07:09:05;76659.31;;;-144.65;100.00
5146;BME280;2591;48.144;15.152;2022-12-07T07:11:33;76653.19;;;-144.65;100.00
5146;BME280;2591;48.144;15.152;2022-12-07T07:14:01;76665.44;;;-144.65;100.00
5146;BME280;2591;48.144;15.152;2022-12-07T07:16:30;76663.41;;;-144.65;100.00
5146;BME280;2591;48.144;15.152;2022-12-07T07:18:58;76661.38;;;-144.65;100.00
5146;BME280;2591;48.144;15.152;2022-12-07T07:21:25;76653.19;;;-144.65;100.00
5146;BME280;2591;48.144;15.152;2022-12-07T07:23:55;76665.44;;;-144.65;100.00
5146;BME280;2591;48.144;15.152;2022-12-07T07:26:24;76657.28;;;-144.65;100.00
5146;BME280;2591;48.144;15.152;2022-12-07T07:28:52;76665.44;;;-144.65;100.00
5146;BME280;2591;48.144;15.152;2022-12-07T07:31:19;76667.47;;;-144.65;100.00
5146;BME280;2591;48.144;15.152;2022-12-07T07:33:48;76663.41;;;-144.65;100.00
5146;BME280;2591;48.144;15.152;2022-12-07T07:36:15;76665.44;;;-144.65;100.00
5146;BME280;2591;48.144;15.152;2022-12-07T07:38:43;76665.44;;;-144.65;100.00
5146;BME280;2591;48.144;15.152;2022-12-07T07:41:12;76663.41;;;-144.65;100.00
5146;BME280;2591;48.144;15.152;2022-12-07T07:43:40;76673.59;;;-144.65;100.00
5146;BME280;2591;48.144;15.152;2022-12-07T07:46:08;76651.16;;;-144.65;100.00
5146;BME280;2591;48.144;15.152;2022-12-07T07:48:37;76661.38;;;-144.65;100.00
5146;BME280;2591;48.144;15.152;2022-12-07T07:51:05;76661.38;;;-144.65;100.00
5146;BME280;2591;48.144;15.152;2022-12-07T07:53:34;76649.13;;;-144.65;100.00
5146;BME280;2591;48.144;15.152;2022-12-07T07:56:02;76649.13;;;-144.65;100.00
5146;BME280;2591;48.144;15.152;2022-12-07T07:58:31;76640.97;;;-144.65;100.00
5146;BME280;2591;48.144;15.152;2022-12-07T08:01:03;76653.19;;;-144.65;100.00
5146;BME280;2591;48.144;15.152;2022-12-07T08:03:31;76649.13;;;-144.65;100.00
5146;BME280;2591;48.144;15.152;2022-12-07T08:05:59;76649.13;;;-144.65;100.00
5146;BME280;2591;48.144;15.152;2022-12-07T08:08:27;76640.97;;;-144.65;100.00
5146;BME280;2591;48.144;15.152;2022-12-07T08:10:55;76634.84;;;-144.65;100.00
5146;BME280;2591;48.144;15.152;2022-12-07T08:13:22;76645.03;;;-144.65;100.00
5146;BME280;2591;48.144;15.152;2022-12-07T08:15:58;76640.97;;;-144.65;100.00
5146;BME280;2591;48.144;15.152;2022-12-07T08:18:30;76640.97;;;-144.65;100.00
5146;BME280;2591;48.144;15.152;2022-12-07T08:20:59;76626.69;;;-144.65;100.00
5146;BME280;2591;48.144;15.152;2022-12-07T08:23:28;76638.94;;;-144.65;100.00
5146;BME280;2591;48.144;15.152;2022-12-07T08:26:06;76638.94;;;-144.65;100.00
5146;BME280;2591;48.144;15.152;2022-12-07T08:28:35;76636.91;;;-144.65;100.00
5146;BME280;2591;48.144;15.152;2022-12-07T08:31:06;76636.91;;;-144.65;100.00
5146;BME280;2591;48.144;15.152;2022-12-07T08:33:35;76628.72;;;-144.65;100.00
5146;BME280;2591;48.144;15.152;2022-12-07T08:36:04;76632.81;;;-144.65;100.00
5146;BME280;2591;48.144;15.152;2022-12-07T08:38:34;76616.50;;;-144.65;100.00
5146;BME280;2591;48.144;15.152;2022-12-07T08:41:02;76616.50;;;-144.65;100.00
5146;BME280;2591;48.144;15.152;2022-12-07T08:43:30;76604.28;;;-144.65;100.00
5146;BME280;2591;48.144;15.152;2022-12-07T08:46:06;76624.66;;;-144.65;100.00
5146;BME280;2591;48.144;15.152;2022-12-07T08:48:36;76632.81;;;-144.65;100.00
5146;BME280;2591;48.144;15.152;2022-12-07T08:51:04;76636.91;;;-144.65;100.00
5146;BME280;2591;48.144;15.152;2022-12-07T08:53:33;76632.81;;;-144.65;100.00
5146;BME280;2591;48.144;15.152;2022-12-07T08:56:03;76636.91;;;-144.65;100.00
5146;BME280;2591;48.144;15.152;2022-12-07T08:58:32;76647.09;;;-144.65;100.00
5146;BME280;2591;48.144;15.152;2022-12-07T09:01:00;76632.81;;;-144.65;100.00
5146;BME280;2591;48.144;15.152;2022-12-07T09:03:29;76640.97;;;-144.65;100.00
5146;BME280;2591;48.144;15.152;2022-12-07T09:06:00;76640.97;;;-144.65;100.00
5146;BME280;2591;48.144;15.152;2022-12-07T09:08:32;76640.97;;;-144.65;100.00
5146;BME280;2591;48.144;15.152;2022-12-07T09:11:00;76649.13;;;-144.65;100.00
5146;BME280;2591;48.144;15.152;2022-12-07T09:13:28;76640.97;;;-144.65;100.00
5146;BME280;2591;48.144;15.152;2022-12-07T09:15:56;76622.63;;;-144.65;100.00
5146;BME280;2591;48.144;15.152;2022-12-07T09:18:24;76608.34;;;-144.65;100.00
5146;BME280;2591;48.144;15.152;2022-12-07T09:20:53;76608.34;;;-144.65;100.00
5146;BME280;2591;48.144;15.152;2022-12-07T09:23:21;76600.19;;;-144.65;100.00
5146;BME280;2591;48.144;15.152;2022-12-07T09:25:49;76569.59;;;-144.65;100.00
5146;BME280;2591;48.144;15.152;2022-12-07T09:28:17;76557.38;;;-144.65;100.00
5146;BME280;2591;48.144;15.152;2022-12-07T09:30:45;76539.00;;;-144.65;100.00
5146;BME280;2591;48.144;15.152;2022-12-07T09:33:33;76512.50;;;-144.65;100.00
5146;BME280;2591;48.144;15.152;2022-12-07T09:36:03;76526.78;;;-144.65;100.00
5146;BME280;2591;48.144;15.152;2022-12-07T09:38:32;76514.53;;;-144.65;100.00
5146;BME280;2591;48.144;15.152;2022-12-07T09:41:05;76498.22;;;-144.65;99.46
5146;BME280;2591;48.144;15.152;2022-12-07T09:43:35;76473.75;;;-144.65;95.98
5146;BME280;2591;48.144;15.152;2022-12-07T09:46:04;76502.31;;;-144.65;93.70
5146;BME280;2591;48.144;15.152;2022-12-07T09:48:34;76524.75;;;-144.65;92.22
5146;BME280;2591;48.144;15.152;2022-12-07T09:51:14;76512.50;;;-144.65;92.67
5146;BME280;2591;48.144;15.152;2022-12-07T09:53:50;76498.22;;;-144.65;92.06
5146;BME280;2591;48.144;15.152;2022-12-07T09:56:19;76465.63;;;-144.65;90.76
5146;BME280;2591;48.144;15.152;2022-12-07T09:58:48;76471.72;;;-144.65;88.81
5146;BME280;2591;48.144;15.152;2022-12-07T10:01:18;76475.81;;;-144.65;89.18
5146;BME280;2591;48.144;15.152;2022-12-07T10:03:50;76469.69;;;-144.65;89.04
5146;BME280;2591;48.144;15.152;2022-12-07T10:06:20;76500.28;;;-144.65;87.11
5146;BME280;2591;48.144;15.152;2022-12-07T10:08:48;76526.78;;;-144.65;87.28
5146;BME280;2591;48.144;15.152;2022-12-07T10:11:16;76541.06;;;-144.65;88.59
5146;BME280;2591;48.144;15.152;2022-12-07T10:13:46;76534.94;;;-144.65;88.05
5146;BME280;2591;48.144;15.152;2022-12-07T10:16:32;76543.09;;;-144.65;89.85
5146;BME280;2591;48.144;15.152;2022-12-07T10:19:18;76555.31;;;-144.65;91.05
5146;BME280;2591;48.144;15.152;2022-12-07T10:22:09;76555.31;;;-144.65;90.86
5146;BME280;2591;48.144;15.152;2022-12-07T10:24:38;76547.16;;;-144.65;90.46
5146;BME280;2591;48.144;15.152;2022-12-07T10:27:18;76547.16;;;-144.65;90.45
5146;BME280;2591;48.144;15.152;2022-12-07T10:29:48;76545.13;;;-144.65;90.91
5146;BME280;2591;48.144;15.152;2022-12-07T10:32:31;76551.25;;;-144.65;90.03
5146;BME280;2591;48.144;15.152;2022-12-07T10:35:20;76547.16;;;-144.65;88.23
5146;BME280;2591;48.144;15.152;2022-12-07T10:37:51;76551.25;;;-144.65;88.66
5146;BME280;2591;48.144;15.152;2022-12-07T10:40:29;76534.94;;;-144.65;88.09
5146;BME280;2591;48.144;15.152;2022-12-07T10:43:03;76522.69;;;-144.65;87.47
5146;BME280;2591;48.144;15.152;2022-12-07T10:45:32;76520.66;;;-144.65;87.11
5146;BME280;2591;48.144;15.152;2022-12-07T10:48:12;76508.44;;;-144.65;85.54
5146;BME280;2591;48.144;15.152;2022-12-07T10:50:54;76510.47;;;-144.65;86.01
5146;BME280;2591;48.144;15.152;2022-12-07T10:53:40;76522.69;;;-144.65;85.72
5146;BME280;2591;48.144;15.152;2022-12-07T10:56:29;76524.75;;;-144.65;87.43
5146;BME280;2591;48.144;15.152;2022-12-07T10:59:15;76522.69;;;-144.65;87.80
5146;BME280;2591;48.144;15.152;2022-12-07T11:01:54;76534.94;;;-144.65;88.52
5146;BME280;2591;48.144;15.152;2022-12-07T11:04:33;76534.94;;;-144.65;88.40
5146;BME280;2591;48.144;15.152;2022-12-07T11:07:10;76536.97;;;-144.65;88.78
5146;BME280;2591;48.144;15.152;2022-12-07T11:10:04;76539.00;;;-144.65;89.17
5146;BME280;2591;48.144;15.152;2022-12-07T11:12:45;76524.75;;;-144.65;89.32
5146;BME280;2591;48.144;15.152;2022-12-07T11:15:21;76520.66;;;-144.65;89.57
5146;BME280;2591;48.144;15.152;2022-12-07T11:17:59;76512.50;;;-144.65;90.09
5146;BME280;2591;48.144;15.152;2022-12-07T11:20:43;76473.75;;;-144.65;87.81
5146;BME280;2591;48.144;15.152;2022-12-07T11:23:24;76465.63;;;-144.65;86.81
5146;BME280;2591;48.144;15.152;2022-12-07T11:26:04;76435.03;;;-144.65;86.53
5146;BME280;2591;48.144;15.152;2022-12-07T11:28:48;76416.69;;;-144.65;85.49
5146;BME280;2591;48.144;15.152;2022-12-07T11:31:31;76422.78;;;-144.65;83.10
5146;BME280;2591;48.144;15.152;2022-12-07T11:34:06;76424.84;;;-144.65;83.23
5146;BME280;2591;48.144;15.152;2022-12-07T11:36:37;76426.88;;;-144.65;82.39
5146;BME280;2591;48.144;15.152;2022-12-07T11:39:19;76428.91;;;-144.65;84.36
5146;BME280;2591;48.144;15.152;2022-12-07T11:41:54;76416.69;;;-144.65;84.57
5146;BME280;2591;48.144;15.152;2022-12-07T11:44:33;76416.69;;;-144.65;84.53
5146;BME280;2591;48.144;15.152;2022-12-07T11:47:07;76410.56;;;-144.65;84.94
5146;BME280;2591;48.144;15.152;2022-12-07T11:49:41;76412.59;;;-144.65;86.49
5146;BME280;2591;48.144;15.152;2022-12-07T11:52:18;76420.75;;;-144.65;88.07
5146;BME280;2591;48.144;15.152;2022-12-07T11:54:50;76408.53;;;-144.65;86.86
5146;BME280;2591;48.144;15.152;2022-12-07T11:57:27;76400.38;;;-144.65;86.48
5146;BME280;2591;48.144;15.152;2022-12-07T12:00:03;76392.22;;;-144.65;84.00
5146;BME280;2591;48.144;15.152;2022-12-07T12:02:38;76398.31;;;-144.65;84.99
5146;BME280;2591;48.144;15.152;2022-12-07T12:05:16;76369.78;;;-144.65;84.02
5146;BME280;2591;48.144;15.152;2022-12-07T12:07:48;76363.66;;;-144.65;84.30
5146;BME280;2591;48.144;15.152;2022-12-07T12:10:46;76322.88;;;-144.65;83.31
5146;BME280;2591;48.144;15.152;2022-12-07T12:13:34;76322.88;;;-144.65;81.41
5146;BME280;2591;48.144;15.152;2022-12-07T12:16:57;76331.03;;;-144.65;82.17
5146;BME280;2591;48.144;15.152;2022-12-07T12:19:34;76359.59;;;-144.65;81.16
5146;BME280;2591;48.144;15.152;2022-12-07T12:22:11;76379.97;;;-144.65;81.81
5146;BME280;2591;48.144;15.152;2022-12-07T12:24:41;76388.13;;;-144.65;81.68
5146;BME280;2591;48.144;15.152;2022-12-07T12:27:18;76408.53;;;-144.65;82.52
5146;BME280;2591;48.144;15.152;2022-12-07T12:29:54;76422.78;;;-144.65;83.96
5146;BME280;2591;48.144;15.152;2022-12-07T12:32:32;76424.84;;;-144.65;84.06
5146;BME280;2591;48.144;15.152;2022-12-07T12:35:29;76435.03;;;-144.65;84.44
5146;BME280;2591;48.144;15.152;2022-12-07T12:38:31;76435.03;;;-144.65;84.19
5146;BME280;2591;48.144;15.152;2022-12-07T12:41:02;76437.06;;;-144.65;84.70
5146;BME280;2591;48.144;15.152;2022-12-07T12:43:51;76445.22;;;-144.65;85.51
5146;BME280;2591;48.144;15.152;2022-12-07T12:46:50;76453.38;;;-144.65;86.34
5146;BME280;2591;48.144;15.152;2022-12-07T12:49:42;76469.69;;;-144.65;87.30
5146;BME280;2591;48.144;15.152;2022-12-07T12:55:20;76481.91;;;-144.65;88.64
5146;BME280;2591;48.144;15.152;2022-12-07T12:58:28;76483.97;;;-144.65;89.72
5146;BME280;2591;48.144;15.152;2022-12-07T13:04:49;76457.44;;;-144.65;89.92
5146;BME280;2591;48.144;15.152;2022-12-07T13:07:47;76443.19;;;-144.65;89.96
5146;BME280;2591;48.144;15.152;2022-12-07T13:10:38;76424.84;;;-144.65;89.43
5146;BME280;2591;48.144;15.152;2022-12-07T13:13:30;76420.75;;;-144.65;88.79
5146;BME280;2591;48.144;15.152;2022-12-07T13:22:50;76410.56;;;-144.65;89.47
5146;BME280;2591;48.144;15.152;2022-12-07T13:25:24;76404.44;;;-144.65;88.16